Aviation Digital Data Service (ADDS)

Output produced by METARs form (0802 UTC 10 December 2022)
found at http://www.aviationweather.gov/metar/data/
 
METAR text: EHKD 100757Z AUTO 16006KT 0400 R21/0500D FG SCT000 01/01 Q1007 RED TEMPO 0400 FG VV001
Conditions at: EHKD (DE KOOY (NAVY) , NL) observed 0757 UTC 10 December 2022
Temperature: 1.0°C (34°F)
Dewpoint: 1.0°C (34°F) [RH = 100%]
Pressure (altimeter): 29.73 inches Hg (1007.0 mb)
Winds: from the SSE (160 degrees) at 7 MPH (6 knots; 3.1 m/s)
Visibility: 0.25 miles (0.40 km)
Ceiling: at least 12,000 feet AGL
Clouds: scattered clouds at 0 feet AGL
Weather: FG  (fog)

METAR text: EHKD 100755Z AUTO 16006KT 1100 R21/1200D BR NCD 01/01 Q1007 AMB TEMPO 0400 FG VV001
Conditions at: EHKD (DE KOOY (NAVY) , NL) observed 0755 UTC 10 December 2022
Temperature: 1.0°C (34°F)
Dewpoint: 1.0°C (34°F) [RH = 100%]
Pressure (altimeter): 29.73 inches Hg (1007.0 mb)
Winds: from the SSE (160 degrees) at 7 MPH (6 knots; 3.1 m/s)
Visibility: 0.68 miles (1.09 km)
Ceiling: at least 12,000 feet AGL
Clouds: sky clear below 12,000 feet AGL
Weather: BR  (mist)

METAR text: EHKD 100744Z AUTO 16006KT 2900 R21/P3000N BR NCD 01/01 Q1007 YLO TEMPO 0400 FG VV001
Conditions at: EHKD (DE KOOY (NAVY) , NL) observed 0744 UTC 10 December 2022
Temperature: 1.0°C (34°F)
Dewpoint: 1.0°C (34°F) [RH = 100%]
Pressure (altimeter): 29.73 inches Hg (1007.0 mb)
Winds: from the SSE (160 degrees) at 7 MPH (6 knots; 3.1 m/s)
Visibility: 1.80 miles (2.90 km)
Ceiling: at least 12,000 feet AGL
Clouds: sky clear below 12,000 feet AGL
Weather: BR  (mist)

METAR text: EHKD 100734Z AUTO 15005KT 4400 BR NCD 01/01 Q1007 GRN TEMPO 0400 BCFG VV001
Conditions at: EHKD (DE KOOY (NAVY) , NL) observed 0734 UTC 10 December 2022
Temperature: 1.0°C (34°F)
Dewpoint: 1.0°C (34°F) [RH = 100%]
Pressure (altimeter): 29.73 inches Hg (1007.0 mb)
Winds: from the SSE (150 degrees) at 6 MPH (5 knots; 2.6 m/s)
Visibility: 2.73 miles (4.39 km)
Ceiling: at least 12,000 feet AGL
Clouds: sky clear below 12,000 feet AGL
Weather: BR  (mist)

METAR text: EHKD 100731Z AUTO 15005KT 3300 R21/P3000D BR NCD 01/00 Q1007 YLO TEMPO 0400 BCFG VV001 RMK LVP CHARLIE
Conditions at: EHKD (DE KOOY (NAVY) , NL) observed 0731 UTC 10 December 2022
Temperature: 1.0°C (34°F)
Dewpoint: 0.0°C (32°F) [RH = 93%]
Pressure (altimeter): 29.73 inches Hg (1007.0 mb)
Winds: from the SSE (150 degrees) at 6 MPH (5 knots; 2.6 m/s)
Visibility: 2.05 miles (3.30 km)
Ceiling: at least 12,000 feet AGL
Clouds: sky clear below 12,000 feet AGL
Weather: BR  (mist)

METAR text: EHKD 100727Z AUTO 14004KT 4200 BR FEW015CB 01/00 Q1007 GRN NOSIG RMK LVP CHARLIE
Conditions at: EHKD (DE KOOY (NAVY) , NL) observed 0727 UTC 10 December 2022
Temperature: 1.0°C (34°F)
Dewpoint: 0.0°C (32°F) [RH = 93%]
Pressure (altimeter): 29.73 inches Hg (1007.0 mb)
Winds: from the SE (140 degrees) at 5 MPH (4 knots; 2.1 m/s)
Visibility: 2.61 miles (4.20 km)
Ceiling: at least 12,000 feet AGL
Clouds: few clouds at 1500 feet AGL
Weather: BR  (mist)

METAR text: EHKD 100725Z AUTO 13003KT 6000 BR FEW015CB SCT035 01/01 Q1007 WHT NOSIG RMK LVP CHARLIE
Conditions at: EHKD (DE KOOY (NAVY) , NL) observed 0725 UTC 10 December 2022
Temperature: 1.0°C (34°F)
Dewpoint: 1.0°C (34°F) [RH = 100%]
Pressure (altimeter): 29.73 inches Hg (1007.0 mb)
Winds: from the SE (130 degrees) at 3 MPH (3 knots; 1.5 m/s)
Visibility: 4 miles ( 6 km)
Ceiling: at least 12,000 feet AGL
Clouds: few clouds at 1500 feet AGL
scattered clouds at 3500 feet AGL
Weather: BR  (mist)

METAR text: EHKD 100715Z AUTO 12003KT 080V140 4000 BR FEW015CB 01/01 Q1007 GRN NOSIG RMK LVP CHARLIE
Conditions at: EHKD (DE KOOY (NAVY) , NL) observed 0715 UTC 10 December 2022
Temperature: 1.0°C (34°F)
Dewpoint: 1.0°C (34°F) [RH = 100%]
Pressure (altimeter): 29.73 inches Hg (1007.0 mb)
Winds: from the ESE (120 degrees) at 3 MPH (3 knots; 1.5 m/s)
Visibility: 2.49 miles (4.01 km)
Ceiling: at least 12,000 feet AGL
Clouds: few clouds at 1500 feet AGL
Weather: BR  (mist)

METAR text: EHKD 100711Z AUTO VRB02KT 2900 R21/2000U BR FEW015CB 01/01 Q1007 YLO NOSIG RMK LVP CHARLIE
Conditions at: EHKD (DE KOOY (NAVY) , NL) observed 0711 UTC 10 December 2022
Temperature: 1.0°C (34°F)
Dewpoint: 1.0°C (34°F) [RH = 100%]
Pressure (altimeter): 29.73 inches Hg (1007.0 mb)
Winds: variable direction winds at 2 MPH (2 knots; 1.0 m/s)
Visibility: 1.80 miles (2.90 km)
Ceiling: at least 12,000 feet AGL
Clouds: few clouds at 1500 feet AGL
Weather: BR  (mist)

METAR text: EHKD 100707Z AUTO 16003KT 090V200 1200 R21/0350N BR FEW000 FEW015CB 01/01 Q1007 AMB NOSIG RMK LVP CHARLIE
Conditions at: EHKD (DE KOOY (NAVY) , NL) observed 0707 UTC 10 December 2022
Temperature: 1.0°C (34°F)
Dewpoint: 1.0°C (34°F) [RH = 100%]
Pressure (altimeter): 29.73 inches Hg (1007.0 mb)
Winds: from the SSE (160 degrees) at 3 MPH (3 knots; 1.5 m/s)
Visibility: 0.75 miles (1.21 km)
Ceiling: at least 12,000 feet AGL
Clouds: few clouds at 0 feet AGL
few clouds at 1500 feet AGL
Weather: BR  (mist)

Forecast for: AMD
Text: TAF AMD EHKD 100720Z 1007/1018 19005KT 4000 BR SCT035
Forecast period: 0700 to 1800 UTC 10 December 2022
Forecast type: FROM: standard forecast or significant change
Winds: from the S (190 degrees) at 6 MPH (5 knots; 2.6 m/s)
Visibility: 2.49 miles (4.01 km)
Ceiling: at least 12,000 feet AGL
Clouds: scattered clouds at 3500 feet AGL
Weather: BR  (mist)
Text: TEMPO 1006/1018 0400 BCFG VV001
Forecast period: 0600 to 1800 UTC 10 December 2022
Forecast type: TEMPORARY: The following changes expected for less than half the time period
Visibility: 0.25 miles (0.40 km)
Ceiling: indefinite ceiling with vertical visibility of 100 feet AGL
Clouds: obscured sky
Weather: BCFG  (patches of fog)
Text: PROB30
Forecast period: 0800 to 1800 UTC 10 December 2022
Forecast type: TEMPORARY: The following changes expected for less than half the time period
Visibility: 1.86 miles (2.99 km)
Ceiling: at least 12,000 feet AGL
Clouds: scattered clouds at 1800 feet AGL
Weather: -SHSN -SHRA  (light snow showers, light rain showers)